AXM5309 WBKK-WMKJ
Flight info
| Callsign | AXM5309 |
|---|---|
| Flight time | N/A |
| Altitude | 38000 |
| Route | DULIM2F DULIM M646 TOMAN G580 HOSBA W401 OMKOM OMKOM1E |
| Aircraft | A320/M-SDE3FGHIRWY/LB1 |
Departure
| Time | N/A |
|---|---|
| Airport | Kota Kinabalu International Airport (WBKK) |
Arrival
| Time | 2026-04-22 16:02 |
|---|---|
| Airport | Senai International Airport (WMKJ) |
| Time | Latitude | Longitude | Altitude | Speed | Heading |
|---|---|---|---|---|---|
| 2026-04-22 14:51 | 3.44679 | 111.16817 | 37922 ft | 454 kts | 248° |
| 2026-04-22 14:51 | 3.43544 | 111.13873 | 37922 ft | 454 kts | 248° |
| 2026-04-22 14:51 | 3.41263 | 111.07969 | 37922 ft | 454 kts | 248° |
| 2026-04-22 14:52 | 3.38983 | 111.02077 | 37919 ft | 454 kts | 248° |
| 2026-04-22 14:52 | 3.36699 | 110.96171 | 37913 ft | 454 kts | 248° |
| 2026-04-22 14:53 | 3.34419 | 110.90269 | 37916 ft | 454 kts | 248° |
| 2026-04-22 14:53 | 3.32144 | 110.84366 | 37916 ft | 455 kts | 248° |
| 2026-04-22 14:54 | 3.29857 | 110.78461 | 37914 ft | 455 kts | 247° |
| 2026-04-22 14:54 | 3.27582 | 110.72589 | 37917 ft | 455 kts | 248° |
| 2026-04-22 14:55 | 3.25298 | 110.66671 | 37915 ft | 456 kts | 248° |
| 2026-04-22 14:55 | 3.23010 | 110.60738 | 37921 ft | 456 kts | 247° |
| 2026-04-22 14:56 | 3.20720 | 110.54818 | 37922 ft | 456 kts | 248° |
| 2026-04-22 14:56 | 3.18421 | 110.48886 | 37927 ft | 457 kts | 247° |
| 2026-04-22 14:57 | 3.16141 | 110.42997 | 37928 ft | 456 kts | 248° |
| 2026-04-22 14:57 | 3.13846 | 110.37067 | 37931 ft | 456 kts | 248° |
| 2026-04-22 14:58 | 3.11552 | 110.31150 | 37929 ft | 456 kts | 247° |
| 2026-04-22 14:58 | 3.09254 | 110.25224 | 37931 ft | 456 kts | 247° |
| 2026-04-22 14:59 | 3.06955 | 110.19304 | 37928 ft | 456 kts | 248° |
| 2026-04-22 14:59 | 3.04663 | 110.13385 | 37929 ft | 456 kts | 248° |
| 2026-04-22 15:00 | 3.02375 | 110.07465 | 37930 ft | 456 kts | 248° |
| 2026-04-22 15:00 | 3.00080 | 110.01548 | 37931 ft | 456 kts | 248° |
| 2026-04-22 15:01 | 2.97790 | 109.95631 | 37930 ft | 456 kts | 248° |
| 2026-04-22 15:01 | 2.95503 | 109.89717 | 37931 ft | 456 kts | 248° |
| 2026-04-22 15:02 | 2.93216 | 109.83803 | 37925 ft | 455 kts | 247° |
| 2026-04-22 15:02 | 2.90918 | 109.77897 | 37924 ft | 455 kts | 247° |
| 2026-04-22 15:03 | 2.88627 | 109.71995 | 37926 ft | 455 kts | 247° |
| 2026-04-22 15:03 | 2.86353 | 109.66126 | 37931 ft | 455 kts | 248° |
| 2026-04-22 15:04 | 2.84066 | 109.60224 | 37929 ft | 455 kts | 248° |
| 2026-04-22 15:04 | 2.81772 | 109.54320 | 37929 ft | 455 kts | 247° |
| 2026-04-22 15:05 | 2.79483 | 109.48423 | 37927 ft | 455 kts | 247° |
| 2026-04-22 15:05 | 2.77188 | 109.42523 | 37924 ft | 455 kts | 247° |
| 2026-04-22 15:06 | 2.75285 | 109.37619 | 37923 ft | 454 kts | 247° |
| 2026-04-22 15:06 | 2.72997 | 109.31722 | 37919 ft | 454 kts | 248° |
| 2026-04-22 15:07 | 2.70710 | 109.25826 | 37919 ft | 454 kts | 248° |
| 2026-04-22 15:07 | 2.68424 | 109.19936 | 37920 ft | 455 kts | 248° |
| 2026-04-22 15:08 | 2.66148 | 109.14075 | 37921 ft | 455 kts | 248° |
| 2026-04-22 15:08 | 2.63854 | 109.08180 | 37919 ft | 454 kts | 248° |
| 2026-04-22 15:09 | 2.61569 | 109.02289 | 37919 ft | 454 kts | 248° |
| 2026-04-22 15:09 | 2.59277 | 108.96396 | 37918 ft | 454 kts | 248° |
| 2026-04-22 15:10 | 2.56989 | 108.90503 | 37915 ft | 454 kts | 248° |
| 2026-04-22 15:10 | 2.54711 | 108.84607 | 37916 ft | 455 kts | 248° |
| 2026-04-22 15:11 | 2.52437 | 108.78701 | 37919 ft | 455 kts | 248° |
| 2026-04-22 15:11 | 2.50158 | 108.72794 | 37918 ft | 455 kts | 248° |
| 2026-04-22 15:12 | 2.47885 | 108.66889 | 37921 ft | 455 kts | 248° |
| 2026-04-22 15:12 | 2.45606 | 108.60991 | 37921 ft | 455 kts | 248° |
| 2026-04-22 15:13 | 2.43346 | 108.55124 | 37923 ft | 455 kts | 248° |
| 2026-04-22 15:13 | 2.41072 | 108.49222 | 37920 ft | 455 kts | 248° |
| 2026-04-22 15:14 | 2.38793 | 108.43322 | 37921 ft | 455 kts | 248° |
| 2026-04-22 15:14 | 2.36513 | 108.37429 | 37920 ft | 455 kts | 248° |
| 2026-04-22 15:15 | 2.34233 | 108.31528 | 37920 ft | 455 kts | 248° |
| 2026-04-22 15:15 | 2.31963 | 108.25633 | 37921 ft | 455 kts | 248° |
| 2026-04-22 15:16 | 2.29692 | 108.19726 | 37923 ft | 454 kts | 248° |
| 2026-04-22 15:16 | 2.27412 | 108.13835 | 37921 ft | 454 kts | 248° |
| 2026-04-22 15:17 | 2.25137 | 108.07937 | 37915 ft | 454 kts | 248° |
| 2026-04-22 15:17 | 2.22862 | 108.02039 | 37915 ft | 455 kts | 248° |
| 2026-04-22 15:18 | 2.20583 | 107.96134 | 37916 ft | 455 kts | 248° |
| 2026-04-22 15:18 | 2.18306 | 107.90231 | 37916 ft | 455 kts | 248° |
| 2026-04-22 15:19 | 2.16024 | 107.84324 | 37921 ft | 455 kts | 248° |
| 2026-04-22 15:19 | 2.13738 | 107.78459 | 37917 ft | 455 kts | 248° |
| 2026-04-22 15:20 | 2.11434 | 107.72568 | 37925 ft | 455 kts | 248° |
| 2026-04-22 15:20 | 2.09131 | 107.66659 | 37924 ft | 456 kts | 248° |
| 2026-04-22 15:21 | 2.06827 | 107.60752 | 37925 ft | 456 kts | 248° |
| 2026-04-22 15:21 | 2.04527 | 107.54852 | 37923 ft | 456 kts | 248° |
| 2026-04-22 15:22 | 2.02221 | 107.48946 | 37926 ft | 456 kts | 248° |
| 2026-04-22 15:22 | 1.99922 | 107.43034 | 37928 ft | 456 kts | 248° |
| 2026-04-22 15:23 | 1.97633 | 107.37124 | 37930 ft | 456 kts | 248° |
| 2026-04-22 15:23 | 1.95358 | 107.31209 | 37930 ft | 456 kts | 248° |
| 2026-04-22 15:24 | 1.93080 | 107.25296 | 37930 ft | 455 kts | 248° |
| 2026-04-22 15:24 | 1.90794 | 107.19391 | 37924 ft | 455 kts | 248° |
| 2026-04-22 15:25 | 1.88501 | 107.13489 | 37927 ft | 455 kts | 248° |
| 2026-04-22 15:25 | 1.86224 | 107.07592 | 37931 ft | 455 kts | 248° |
| 2026-04-22 15:26 | 1.83945 | 107.01696 | 37929 ft | 455 kts | 248° |
| 2026-04-22 15:26 | 1.81664 | 106.95800 | 37917 ft | 454 kts | 248° |
| 2026-04-22 15:27 | 1.79387 | 106.89905 | 37923 ft | 454 kts | 248° |
| 2026-04-22 15:27 | 1.77121 | 106.84047 | 37922 ft | 454 kts | 248° |
| 2026-04-22 15:28 | 1.74837 | 106.78145 | 37917 ft | 455 kts | 248° |
| 2026-04-22 15:28 | 1.72554 | 106.72251 | 37922 ft | 454 kts | 248° |
| 2026-04-22 15:29 | 1.70271 | 106.66351 | 37920 ft | 454 kts | 248° |
| 2026-04-22 15:30 | 1.66844 | 106.57513 | 37921 ft | 455 kts | 248° |
| 2026-04-22 15:30 | 1.64570 | 106.51617 | 37920 ft | 454 kts | 248° |
| 2026-04-22 15:31 | 1.62282 | 106.45728 | 37919 ft | 454 kts | 248° |
| 2026-04-22 15:31 | 1.59987 | 106.39847 | 37917 ft | 454 kts | 248° |
| 2026-04-22 15:32 | 1.57705 | 106.33960 | 37921 ft | 454 kts | 248° |
| 2026-04-22 15:32 | 1.55425 | 106.28067 | 37918 ft | 454 kts | 248° |
| 2026-04-22 15:33 | 1.53155 | 106.22218 | 37917 ft | 454 kts | 248° |
| 2026-04-22 15:33 | 1.50877 | 106.16325 | 37920 ft | 454 kts | 248° |
| 2026-04-22 15:34 | 1.48588 | 106.10442 | 37917 ft | 454 kts | 248° |
| 2026-04-22 15:34 | 1.46297 | 106.04566 | 37917 ft | 454 kts | 248° |
| 2026-04-22 15:35 | 1.44401 | 105.99667 | 37914 ft | 454 kts | 248° |
| 2026-04-22 15:35 | 1.41753 | 105.92828 | 37919 ft | 453 kts | 248° |
| 2026-04-22 15:36 | 1.39468 | 105.86951 | 37923 ft | 453 kts | 248° |
| 2026-04-22 15:36 | 1.37209 | 105.81074 | 37918 ft | 453 kts | 251° |
| 2026-04-22 15:37 | 1.36197 | 105.74867 | 37915 ft | 455 kts | 268° |
| 2026-04-22 15:37 | 1.36073 | 105.68540 | 37909 ft | 455 kts | 267° |
| 2026-04-22 15:38 | 1.35916 | 105.62210 | 37907 ft | 455 kts | 267° |
| 2026-04-22 15:38 | 1.35687 | 105.52719 | 37903 ft | 456 kts | 267° |
| 2026-04-22 15:39 | 1.35537 | 105.46385 | 37899 ft | 456 kts | 267° |
| 2026-04-22 15:39 | 1.35383 | 105.40045 | 37904 ft | 456 kts | 267° |
| 2026-04-22 15:40 | 1.35234 | 105.33742 | 37901 ft | 457 kts | 267° |
| 2026-04-22 15:40 | 1.35088 | 105.27389 | 37894 ft | 457 kts | 267° |
| 2026-04-22 15:41 | 1.35014 | 105.24206 | 37649 ft | 458 kts | 267° |
| 2026-04-22 15:41 | 1.34939 | 105.21025 | 37234 ft | 459 kts | 267° |
| 2026-04-22 15:41 | 1.34861 | 105.17830 | 36423 ft | 462 kts | 267° |
| 2026-04-22 15:41 | 1.34784 | 105.14609 | 35620 ft | 465 kts | 267° |
| 2026-04-22 15:42 | 1.34706 | 105.11358 | 34774 ft | 469 kts | 268° |
| 2026-04-22 15:42 | 1.34627 | 105.08075 | 33855 ft | 475 kts | 268° |
| 2026-04-22 15:42 | 1.34545 | 105.04777 | 33204 ft | 473 kts | 268° |
| 2026-04-22 15:42 | 1.34464 | 105.01505 | 32572 ft | 469 kts | 268° |
| 2026-04-22 15:43 | 1.34381 | 104.98257 | 31950 ft | 466 kts | 268° |
| 2026-04-22 15:43 | 1.34300 | 104.95033 | 31334 ft | 463 kts | 268° |
| 2026-04-22 15:43 | 1.34223 | 104.91823 | 30719 ft | 460 kts | 268° |
| 2026-04-22 15:43 | 1.34149 | 104.88636 | 30111 ft | 457 kts | 268° |
| 2026-04-22 15:44 | 1.34075 | 104.85464 | 29443 ft | 454 kts | 268° |
| 2026-04-22 15:44 | 1.33999 | 104.82327 | 28862 ft | 449 kts | 268° |
| 2026-04-22 15:44 | 1.33923 | 104.79219 | 28275 ft | 445 kts | 268° |
| 2026-04-22 15:44 | 1.33849 | 104.76143 | 27704 ft | 441 kts | 268° |
| 2026-04-22 15:45 | 1.33775 | 104.73097 | 27135 ft | 436 kts | 268° |
| 2026-04-22 15:45 | 1.33702 | 104.70078 | 26599 ft | 432 kts | 268° |
| 2026-04-22 15:45 | 1.33630 | 104.67094 | 26060 ft | 428 kts | 268° |
| 2026-04-22 15:45 | 1.33560 | 104.64133 | 25553 ft | 423 kts | 268° |
| 2026-04-22 15:46 | 1.33488 | 104.61205 | 25049 ft | 419 kts | 268° |
| 2026-04-22 15:46 | 1.33417 | 104.58308 | 24555 ft | 415 kts | 268° |
| 2026-04-22 15:46 | 1.33346 | 104.55435 | 24059 ft | 412 kts | 268° |
| 2026-04-22 15:46 | 1.33278 | 104.52581 | 23558 ft | 409 kts | 268° |
| 2026-04-22 15:47 | 1.33211 | 104.49743 | 22998 ft | 406 kts | 268° |
| 2026-04-22 15:47 | 1.33148 | 104.46940 | 22490 ft | 402 kts | 268° |
| 2026-04-22 15:47 | 1.33106 | 104.45099 | 22162 ft | 399 kts | 269° |
| 2026-04-22 15:47 | 1.33099 | 104.42334 | 21652 ft | 396 kts | 274° |
| 2026-04-22 15:48 | 1.33836 | 104.38754 | 20978 ft | 392 kts | 290° |
| 2026-04-22 15:48 | 1.34902 | 104.36293 | 20466 ft | 390 kts | 295° |
| 2026-04-22 15:48 | 1.36029 | 104.33836 | 19962 ft | 388 kts | 295° |
| 2026-04-22 15:48 | 1.37148 | 104.31382 | 19448 ft | 387 kts | 294° |
| 2026-04-22 15:49 | 1.38260 | 104.28936 | 18940 ft | 386 kts | 294° |
| 2026-04-22 15:49 | 1.39366 | 104.26497 | 18433 ft | 385 kts | 294° |
| 2026-04-22 15:49 | 1.40113 | 104.24845 | 18086 ft | 384 kts | 294° |
| 2026-04-22 15:49 | 1.41211 | 104.22418 | 17544 ft | 382 kts | 294° |
| 2026-04-22 15:50 | 1.42303 | 104.20004 | 17051 ft | 379 kts | 294° |
| 2026-04-22 15:50 | 1.43405 | 104.17616 | 16476 ft | 378 kts | 297° |
| 2026-04-22 15:50 | 1.44937 | 104.15522 | 16010 ft | 376 kts | 311° |
| 2026-04-22 15:50 | 1.46681 | 104.13560 | 15600 ft | 371 kts | 311° |
| 2026-04-22 15:51 | 1.48349 | 104.11662 | 15015 ft | 365 kts | 311° |
| 2026-04-22 15:51 | 1.50016 | 104.09753 | 14408 ft | 364 kts | 310° |
| 2026-04-22 15:51 | 1.51677 | 104.07853 | 13938 ft | 363 kts | 310° |
| 2026-04-22 15:51 | 1.53331 | 104.05963 | 13511 ft | 359 kts | 310° |
| 2026-04-22 15:52 | 1.54976 | 104.04086 | 13021 ft | 356 kts | 310° |
| 2026-04-22 15:52 | 1.56607 | 104.02231 | 12512 ft | 354 kts | 310° |
| 2026-04-22 15:52 | 1.58212 | 104.00379 | 12011 ft | 352 kts | 310° |
| 2026-04-22 15:52 | 1.59788 | 103.98522 | 11561 ft | 348 kts | 309° |
| 2026-04-22 15:53 | 1.61344 | 103.96674 | 11107 ft | 345 kts | 309° |
| 2026-04-22 15:53 | 1.62873 | 103.94854 | 10718 ft | 340 kts | 309° |
| 2026-04-22 15:53 | 1.64394 | 103.93046 | 10232 ft | 339 kts | 309° |
| 2026-04-22 15:53 | 1.65886 | 103.91281 | 10110 ft | 326 kts | 309° |
| 2026-04-22 15:54 | 1.67322 | 103.89585 | 9995 ft | 313 kts | 309° |
| 2026-04-22 15:54 | 1.68701 | 103.87955 | 9868 ft | 302 kts | 309° |
| 2026-04-22 15:54 | 1.70052 | 103.86360 | 9548 ft | 299 kts | 309° |
| 2026-04-22 15:54 | 1.71386 | 103.84785 | 9073 ft | 294 kts | 309° |
| 2026-04-22 15:55 | 1.72703 | 103.83231 | 8389 ft | 292 kts | 310° |
| 2026-04-22 15:55 | 1.74010 | 103.81690 | 7710 ft | 289 kts | 310° |
| 2026-04-22 15:55 | 1.75303 | 103.80163 | 7056 ft | 286 kts | 310° |
| 2026-04-22 15:55 | 1.76585 | 103.78650 | 6415 ft | 284 kts | 310° |
| 2026-04-22 15:56 | 1.77856 | 103.77151 | 5728 ft | 281 kts | 310° |
| 2026-04-22 15:56 | 1.79098 | 103.75686 | 5058 ft | 279 kts | 310° |
| 2026-04-22 15:56 | 1.80359 | 103.74201 | 4465 ft | 274 kts | 310° |
| 2026-04-22 15:56 | 1.81559 | 103.72786 | 3948 ft | 269 kts | 310° |
| 2026-04-22 15:57 | 1.82518 | 103.71235 | 3820 ft | 256 kts | 290° |
| 2026-04-22 15:57 | 1.82824 | 103.69549 | 3757 ft | 241 kts | 268° |
| 2026-04-22 15:57 | 1.82539 | 103.67945 | 3658 ft | 230 kts | 249° |
| 2026-04-22 15:57 | 1.81989 | 103.66476 | 3549 ft | 221 kts | 249° |
| 2026-04-22 15:58 | 1.81464 | 103.65061 | 3443 ft | 213 kts | 249° |
| 2026-04-22 15:58 | 1.80966 | 103.63703 | 3378 ft | 203 kts | 249° |
| 2026-04-22 15:58 | 1.80385 | 103.62450 | 3133 ft | 198 kts | 230° |
| 2026-04-22 15:58 | 1.79248 | 103.61743 | 2831 ft | 193 kts | 190° |
| 2026-04-22 15:59 | 1.77961 | 103.61870 | 2621 ft | 184 kts | 158° |
| 2026-04-22 15:59 | 1.76774 | 103.62308 | 2392 ft | 180 kts | 158° |
| 2026-04-22 15:59 | 1.75605 | 103.62735 | 2164 ft | 177 kts | 158° |
| 2026-04-22 15:59 | 1.74461 | 103.63151 | 1954 ft | 171 kts | 157° |
| 2026-04-22 16:00 | 1.73377 | 103.63546 | 1728 ft | 161 kts | 157° |
| 2026-04-22 16:00 | 1.72357 | 103.63917 | 1522 ft | 152 kts | 156° |
| 2026-04-22 16:00 | 1.71377 | 103.64274 | 1331 ft | 148 kts | 156° |
| 2026-04-22 16:00 | 1.70418 | 103.64623 | 1144 ft | 145 kts | 157° |
| 2026-04-22 16:01 | 1.69471 | 103.64969 | 966 ft | 145 kts | 158° |
| 2026-04-22 16:01 | 1.68517 | 103.65316 | 791 ft | 146 kts | 158° |
| 2026-04-22 16:01 | 1.67562 | 103.65664 | 609 ft | 146 kts | 159° |
| 2026-04-22 16:01 | 1.66616 | 103.66008 | 419 ft | 147 kts | 159° |
| 2026-04-22 16:02 | 1.65660 | 103.66356 | 245 ft | 146 kts | 159° |
| 2026-04-22 16:02 | 1.64757 | 103.66687 | 201 ft | 120 kts | 160° |
| 2026-04-22 16:02 | 1.64135 | 103.66913 | 204 ft | 70 kts | 160° |
| 2026-04-22 16:02 | 1.63809 | 103.67033 | 204 ft | 39 kts | 160° |
| 2026-04-22 16:03 | 1.63594 | 103.67059 | 200 ft | 19 kts | 186° |
| 2026-04-22 16:03 | 1.63482 | 103.67041 | 200 ft | 12 kts | 188° |
| 2026-04-22 16:03 | 1.63410 | 103.67023 | 202 ft | 9 kts | 209° |
| 2026-04-22 16:03 | 1.63375 | 103.66978 | 207 ft | 8 kts | 249° |
| 2026-04-22 16:04 | 1.63365 | 103.66928 | 208 ft | 8 kts | 279° |
| 2026-04-22 16:04 | 1.63426 | 103.66889 | 204 ft | 13 kts | 328° |
| 2026-04-22 16:04 | 1.63499 | 103.66867 | 205 ft | 10 kts | 343° |